Time;durP1;ratioP1;P1;durP2;ratioP2;P2;SDS_P1;SDS_P2;PMS_P1;PMS_P2;Temp;Humidity;BMP_temperature;BMP_pressure;BME280_temperature;BME280_humidity;BME280_pressure;Samples;Min_cycle;Max_cycle;Signal;HPM_P1;HPM_P2
2022/07/17 00:00:12;;;;;;;6.50;3.70;;;19.90;60.00;;;;;;5074963;28;20514;-73
2022/07/17 00:02:39;;;;;;;5.60;4.20;;;20.00;59.40;;;;;;5074957;28;20465;-73
2022/07/17 00:05:08;;;;;;;5.13;4.63;;;20.00;59.70;;;;;;5074860;28;20551;-73
2022/07/17 00:07:36;;;;;;;4.37;3.60;;;20.00;59.50;;;;;;5075041;28;20443;-73
2022/07/17 00:10:04;;;;;;;6.80;4.17;;;19.90;59.70;;;;;;5075118;28;20966;-72
2022/07/17 00:12:31;;;;;;;4.23;3.87;;;19.80;60.00;;;;;;5074989;28;20448;-73
2022/07/17 00:14:59;;;;;;;3.97;3.50;;;19.80;60.30;;;;;;5074911;28;20463;-73
2022/07/17 00:17:26;;;;;;;4.20;3.90;;;19.80;60.00;;;;;;5075069;28;20440;-74
2022/07/17 00:19:53;;;;;;;6.30;4.03;;;19.80;60.70;;;;;;5074866;28;20520;-74
2022/07/17 00:22:21;;;;;;;5.10;4.60;;;19.80;60.40;;;;;;5074604;28;20480;-71
2022/07/17 00:24:50;;;;;;;5.97;4.20;;;19.70;61.00;;;;;;5074402;28;21012;-71
2022/07/17 00:27:17;;;;;;;5.40;4.87;;;19.70;61.10;;;;;;5074716;28;20433;-70
2022/07/17 00:29:44;;;;;;;7.43;4.80;;;19.60;61.20;;;;;;5074712;28;20507;-71
2022/07/17 00:32:11;;;;;;;5.17;4.77;;;19.60;62.20;;;;;;5074525;28;20975;-71
2022/07/17 00:34:39;;;;;;;6.57;4.87;;;;;;;;;;5074612;28;20560;-72
2022/07/17 00:37:06;;;;;;;5.17;4.67;;;19.50;61.50;;;;;;5074370;28;20432;-71
2022/07/17 00:39:34;;;;;;;5.63;5.03;;;19.30;62.80;;;;;;5074416;28;20476;-72
2022/07/17 00:42:02;;;;;;;6.27;5.13;;;19.10;62.90;;;;;;5073821;28;20554;-72
2022/07/17 00:44:30;;;;;;;5.67;4.87;;;19.10;63.50;;;;;;5074045;28;20880;-72
2022/07/17 00:46:57;;;;;;;5.40;5.00;;;;;;;;;;5074040;28;20502;-72
2022/07/17 00:49:24;;;;;;;7.90;4.20;;;19.10;63.40;;;;;;5074188;28;20452;-72
2022/07/17 00:51:51;;;;;;;5.90;4.80;;;19.20;64.40;;;;;;5074107;28;20543;-72
2022/07/17 00:54:19;;;;;;;7.20;5.80;;;19.20;64.40;;;;;;5074053;28;20784;-72
2022/07/17 00:56:48;;;;;;;6.00;5.10;;;19.10;64.60;;;;;;5073780;28;20543;-72
2022/07/17 00:59:18;;;;;;;6.80;4.40;;;19.10;64.90;;;;;;5073638;28;20448;-72
2022/07/17 01:01:45;;;;;;;4.10;3.80;;;19.20;64.70;;;;;;5073745;28;20480;-72
2022/07/17 01:04:12;;;;;;;9.20;5.03;;;19.00;65.30;;;;;;5073933;28;20539;-72
2022/07/17 01:06:39;;;;;;;5.27;4.77;;;18.90;65.40;;;;;;5073660;28;20459;-71
2022/07/17 01:09:06;;;;;;;6.50;4.83;;;18.80;65.60;;;;;;5074008;28;20450;-71
2022/07/17 01:11:34;;;;;;;5.97;5.37;;;18.80;65.80;;;;;;5073822;28;20918;-72
2022/07/17 01:14:01;;;;;;;5.80;4.63;;;18.70;66.00;;;;;;5073745;28;20452;-72
2022/07/17 01:16:30;;;;;;;5.87;5.37;;;18.70;66.20;;;;;;5073766;28;20464;-72
2022/07/17 01:18:58;;;;;;;7.40;4.47;;;18.80;65.50;;;;;;5073478;28;20919;-72
2022/07/17 01:21:37;;;;;;;5.50;5.00;;;18.80;65.60;;;;;;5073635;28;20577;-71
2022/07/17 01:24:05;;;;;;;10.00;4.20;;;18.80;65.70;;;;;;5073464;28;20523;-71
2022/07/17 01:26:32;;;;;;;6.00;4.93;;;18.80;66.20;;;;;;5073613;28;20448;-72
2022/07/17 01:28:59;;;;;;;9.47;5.40;;;18.80;66.60;;;;;;5073328;28;20451;-71
2022/07/17 01:31:26;;;;;;;6.00;5.30;;;18.90;67.00;;;;;;5073263;28;20460;-72
2022/07/17 01:33:54;;;;;;;9.30;5.73;;;18.90;66.90;;;;;;5073356;28;20539;-72
2022/07/17 01:36:23;;;;;;;7.13;5.60;;;19.10;67.60;;;;;;5073261;28;20464;-72
2022/07/17 01:38:54;;;;;;;6.10;5.50;;;19.10;67.30;;;;;;5073218;28;20456;-72
2022/07/17 01:41:21;;;;;;;6.93;6.23;;;19.10;66.40;;;;;;5072871;28;20990;-72
2022/07/17 01:43:49;;;;;;;6.33;5.10;;;19.10;67.50;;;;;;5073400;28;20449;-72
2022/07/17 01:46:16;;;;;;;5.80;5.20;;;19.00;67.60;;;;;;5073096;28;20898;-72
2022/07/17 01:48:43;;;;;;;5.40;4.90;;;19.00;67.00;;;;;;5073407;28;20536;-72
2022/07/17 01:51:10;;;;;;;4.83;4.43;;;18.80;67.60;;;;;;5073096;28;20548;-72
2022/07/17 01:53:37;;;;;;;8.23;4.63;;;18.60;68.40;;;;;;5073373;28;20455;-72
2022/07/17 01:56:07;;;;;;;5.30;4.77;;;18.60;68.20;;;;;;5073129;28;20440;-72
2022/07/17 01:58:34;;;;;;;6.67;5.03;;;18.50;67.80;;;;;;5073094;28;20488;-72
2022/07/17 02:01:01;;;;;;;6.07;4.63;;;18.40;68.50;;;;;;5073122;28;20834;-72
2022/07/17 02:03:29;;;;;;;8.47;5.10;;;18.30;68.60;;;;;;5072988;28;20428;-71
2022/07/17 02:05:56;;;;;;;5.43;4.90;;;18.50;70.00;;;;;;5072926;28;20547;-71
2022/07/17 02:08:23;;;;;;;5.73;5.17;;;18.50;69.50;;;;;;5072917;28;20935;-72
2022/07/17 02:10:50;;;;;;;5.40;4.57;;;18.70;69.80;;;;;;5072814;28;20562;-72
2022/07/17 02:13:19;;;;;;;5.07;4.67;;;18.50;68.10;;;;;;5072910;28;20484;-72
2022/07/17 02:15:46;;;;;;;4.60;4.23;;;18.30;68.60;;;;;;5074715;28;20455;-72
2022/07/17 02:18:13;;;;;;;4.90;4.40;;;18.20;69.00;;;;;;5077236;28;20523;-71
2022/07/17 02:20:41;;;;;;;4.60;4.20;;;18.10;69.60;;;;;;5077139;28;20566;-72
2022/07/17 02:23:08;;;;;;;5.53;4.63;;;18.10;70.10;;;;;;5077244;28;20455;-71
2022/07/17 02:25:36;;;;;;;6.13;4.47;;;18.00;70.20;;;;;;5077187;28;20443;-71
2022/07/17 02:28:03;;;;;;;5.10;4.60;;;18.00;70.50;;;;;;5077182;28;20491;-71
2022/07/17 02:30:31;;;;;;;5.00;4.60;;;18.10;69.90;;;;;;5077071;28;20464;-72
2022/07/17 02:32:58;;;;;;;5.93;4.90;;;18.10;70.30;;;;;;5076690;28;20566;-72
2022/07/17 02:35:26;;;;;;;4.73;4.33;;;18.10;70.70;;;;;;5076716;28;20491;-71
2022/07/17 02:37:53;;;;;;;5.10;4.70;;;18.10;70.30;;;;;;5077043;28;20469;-71
2022/07/17 02:40:20;;;;;;;4.23;3.83;;;18.10;70.50;;;;;;5076143;28;20555;-72
2022/07/17 02:42:47;;;;;;;11.33;4.80;;;18.10;70.40;;;;;;5076484;28;20512;-72
2022/07/17 02:45:14;;;;;;;7.37;4.33;;;17.90;70.90;;;;;;5076864;28;20452;-72
2022/07/17 02:47:43;;;;;;;5.80;4.60;;;17.80;71.90;;;;;;5076685;28;20539;-72
2022/07/17 02:50:12;;;;;;;6.33;4.40;;;17.80;71.40;;;;;;5076619;28;20464;-72
2022/07/17 02:52:39;;;;;;;6.03;4.80;;;17.90;71.50;;;;;;5076425;28;20539;-72
2022/07/17 02:55:07;;;;;;;5.07;4.57;;;18.00;73.20;;;;;;5076217;28;20532;-72
2022/07/17 02:57:34;;;;;;;4.90;4.40;;;18.10;71.80;;;;;;5076520;28;20838;-72
2022/07/17 03:00:01;;;;;;;4.63;4.23;;;17.80;71.90;;;;;;5076144;28;20974;-72
2022/07/17 03:02:29;;;;;;;7.80;5.23;;;17.70;72.50;;;;;;5076332;28;20480;-72
2022/07/17 03:04:57;;;;;;;5.80;4.73;;;17.70;72.60;;;;;;5076192;28;20452;-71
2022/07/17 03:07:25;;;;;;;5.67;4.80;;;17.80;72.80;;;;;;5076142;28;20456;-71
2022/07/17 03:09:52;;;;;;;5.50;5.00;;;17.90;73.40;;;;;;5076237;28;20559;-71
2022/07/17 03:12:19;;;;;;;11.93;5.03;;;18.00;73.20;;;;;;5075949;28;20881;-71
2022/07/17 03:14:46;;;;;;;6.23;5.10;;;17.80;72.30;;;;;;5075900;28;20855;-72
2022/07/17 03:17:14;;;;;;;5.20;4.70;;;17.70;72.80;;;;;;5075938;28;20464;-71
2022/07/17 03:19:41;;;;;;;5.20;4.70;;;17.80;73.40;;;;;;5076111;28;20503;-71
2022/07/17 03:22:10;;;;;;;5.47;4.90;;;17.70;72.90;;;;;;5075803;28;20910;-71
2022/07/17 03:24:37;;;;;;;7.50;5.10;;;17.70;73.20;;;;;;5076100;28;20472;-71
2022/07/17 03:27:04;;;;;;;4.90;4.40;;;17.60;73.20;;;;;;5074635;28;20554;-70
2022/07/17 03:29:31;;;;;;;5.03;4.37;;;17.50;73.90;;;;;;5075620;28;20444;-71
2022/07/17 03:31:59;;;;;;;5.60;5.10;;;17.40;74.30;;;;;;5075918;28;20495;-70
2022/07/17 03:34:27;;;;;;;5.40;4.90;;;17.50;74.80;;;;;;5075833;28;20499;-72
2022/07/17 03:36:54;;;;;;;6.10;5.03;;;17.40;75.90;;;;;;5075972;28;20534;-71
2022/07/17 03:39:22;;;;;;;7.53;5.50;;;17.50;76.70;;;;;;5075794;28;20540;-71
2022/07/17 03:41:50;;;;;;;6.20;5.40;;;17.60;77.00;;;;;;5075156;28;20488;-70
2022/07/17 03:44:17;;;;;;;5.70;5.20;;;17.60;77.60;;;;;;5075483;28;20455;-71
2022/07/17 03:46:44;;;;;;;6.10;5.50;;;17.70;77.70;;;;;;5075701;28;20543;-71
2022/07/17 03:49:11;;;;;;;6.10;5.50;;;17.80;78.20;;;;;;5075581;28;20544;-71
2022/07/17 03:51:38;;;;;;;6.13;5.53;;;17.80;78.20;;;;;;5075470;28;20464;-72
2022/07/17 03:54:06;;;;;;;5.53;5.13;;;17.80;77.30;;;;;;5075362;28;20498;-72
2022/07/17 03:56:34;;;;;;;5.80;4.93;;;17.40;77.60;;;;;;5075556;28;20619;-72
2022/07/17 03:59:02;;;;;;;5.77;5.27;;;17.20;78.70;;;;;;5075151;28;20539;-72
2022/07/17 04:01:29;;;;;;;6.30;4.50;;;17.10;79.50;;;;;;5074986;28;20691;-71
2022/07/17 04:03:56;;;;;;;6.03;5.50;;;17.10;80.10;;;;;;5075035;28;20523;-71
2022/07/17 04:06:23;;;;;;;6.00;5.33;;;17.10;80.20;;;;;;5074949;28;20547;-71
2022/07/17 04:08:50;;;;;;;8.60;5.17;;;17.10;80.70;;;;;;5075250;28;20455;-71
2022/07/17 04:11:19;;;;;;;6.10;5.60;;;17.10;80.60;;;;;;5074651;28;20877;-71
2022/07/17 04:13:48;;;;;;;5.43;4.93;;;17.10;81.10;;;;;;5074880;28;20499;-71
2022/07/17 04:16:15;;;;;;;6.23;5.63;;;17.20;81.10;;;;;;5074793;28;21006;-71
2022/07/17 04:18:42;;;;;;;5.90;4.60;;;17.10;81.60;;;;;;5074816;28;20455;-71
2022/07/17 04:21:11;;;;;;;6.77;5.97;;;17.00;81.90;;;;;;5074502;28;20816;-71
2022/07/17 04:23:38;;;;;;;6.40;5.33;;;17.10;82.10;;;;;;5074900;28;20626;-71
2022/07/17 04:26:06;;;;;;;6.23;5.60;;;17.10;82.40;;;;;;5074705;28;20436;-70
2022/07/17 04:28:34;;;;;;;7.90;5.80;;;17.20;83.80;;;;;;5074797;28;20448;-71
2022/07/17 04:31:02;;;;;;;6.27;5.67;;;17.40;84.70;;;;;;5074407;28;20909;-70
2022/07/17 04:33:30;;;;;;;6.53;5.93;;;17.50;84.60;;;;;;5074558;28;20444;-72
2022/07/17 04:35:57;;;;;;;6.90;6.10;;;17.50;83.60;;;;;;5074479;28;20464;-71
2022/07/17 04:38:24;;;;;;;8.40;6.20;;;17.50;83.10;;;;;;5073901;28;20539;-71
2022/07/17 04:40:51;;;;;;;7.20;6.50;;;17.50;83.30;;;;;;5073274;28;20476;-71
2022/07/17 04:43:18;;;;;;;7.90;7.03;;;17.60;84.40;;;;;;5073938;28;20486;-71
2022/07/17 04:45:46;;;;;;;6.33;5.83;;;17.60;84.40;;;;;;5074453;28;20487;-71
2022/07/17 04:48:14;;;;;;;8.20;7.10;;;17.60;85.50;;;;;;5074525;28;20877;-71
2022/07/17 04:50:41;;;;;;;7.63;6.67;;;17.50;85.80;;;;;;5074307;28;20812;-72
2022/07/17 04:53:09;;;;;;;9.30;6.20;;;17.60;86.70;;;;;;5074290;28;20440;-72
2022/07/17 04:55:36;;;;;;;6.23;5.73;;;17.60;86.00;;;;;;5074095;28;20535;-72
2022/07/17 04:58:04;;;;;;;10.43;7.27;;;17.60;86.90;;;;;;5073977;28;20480;-72
2022/07/17 05:00:31;;;;;;;8.33;6.57;;;17.60;87.00;;;;;;5073805;28;20499;-72
2022/07/17 05:02:58;;;;;;;7.17;6.33;;;17.60;87.90;;;;;;5074155;28;20476;-71
2022/07/17 05:05:27;;;;;;;6.87;6.27;;;17.70;87.40;;;;;;5073953;28;20475;-71
2022/07/17 05:07:54;;;;;;;7.17;6.53;;;17.80;87.40;;;;;;5074009;28;20448;-71
2022/07/17 05:10:21;;;;;;;6.60;5.57;;;17.80;87.40;;;;;;5073927;28;20448;-72
2022/07/17 05:12:48;;;;;;;8.57;7.10;;;17.80;86.80;;;;;;5074041;28;20442;-71
2022/07/17 05:15:15;;;;;;;6.23;5.73;;;17.80;87.50;;;;;;5073782;28;20456;-71
2022/07/17 05:17:43;;;;;;;8.07;6.13;;;17.80;88.90;;;;;;5073555;28;20538;-71
2022/07/17 05:20:10;;;;;;;8.43;6.90;;;17.90;87.70;;;;;;5073509;28;20499;-70
2022/07/17 05:22:39;;;;;;;6.33;5.73;;;17.90;88.40;;;;;;5073293;28;20486;-71
2022/07/17 05:25:07;;;;;;;6.30;5.80;;;17.80;87.50;;;;;;5073330;28;20531;-71
2022/07/17 05:27:34;;;;;;;7.37;5.33;;;17.90;86.70;;;;;;5073696;28;20459;-71
2022/07/17 05:30:02;;;;;;;10.13;6.27;;;17.90;86.70;;;;;;5073258;28;20475;-71
2022/07/17 05:32:29;;;;;;;7.20;5.80;;;18.00;86.90;;;;;;5073277;28;20447;-72
2022/07/17 05:34:56;;;;;;;7.70;6.90;;;18.00;86.70;;;;;;5073628;28;20824;-71
2022/07/17 05:37:23;;;;;;;8.70;6.97;;;17.90;86.20;;;;;;5073621;28;20520;-72
2022/07/17 05:39:51;;;;;;;7.43;6.73;;;18.00;86.70;;;;;;5073181;28;20556;-72
2022/07/17 05:42:19;;;;;;;8.40;6.50;;;18.10;88.00;;;;;;5073250;28;20579;-73
2022/07/17 05:44:46;;;;;;;8.40;7.10;;;18.00;86.60;;;;;;5072988;28;20800;-72
2022/07/17 05:47:13;;;;;;;6.90;6.20;;;17.80;87.70;;;;;;5073486;28;20582;-72
2022/07/17 05:49:40;;;;;;;8.27;7.50;;;17.90;89.50;;;;;;5072605;28;20547;-72
2022/07/17 05:52:07;;;;;;;9.77;7.03;;;18.00;87.90;;;;;;5072974;28;21035;-72
2022/07/17 05:54:35;;;;;;;7.13;6.50;;;18.10;90.00;;;;;;5073071;28;20539;-73
2022/07/17 05:57:04;;;;;;;7.40;6.67;;;18.20;88.70;;;;;;5073199;28;20478;-72
2022/07/17 05:59:31;;;;;;;8.00;7.20;;;18.20;86.60;;;;;;5073040;28;20531;-73
2022/07/17 06:01:58;;;;;;;10.03;7.20;;;18.20;86.10;;;;;;5073265;28;20480;-72
2022/07/17 06:04:25;;;;;;;8.73;6.60;;;18.30;87.30;;;;;;5072993;28;20527;-72
2022/07/17 06:06:57;;;;;;;7.20;6.50;;;18.40;86.30;;;;;;5073432;28;20452;-72
2022/07/17 06:09:24;;;;;;;7.73;6.30;;;18.50;87.60;;;;;;5072849;28;20543;-73
2022/07/17 06:11:51;;;;;;;9.60;6.87;;;18.60;86.80;;;;;;5073227;28;20544;-72
2022/07/17 06:14:20;;;;;;;9.90;6.20;;;18.70;85.60;;;;;;5073175;28;20452;-72
2022/07/17 06:16:47;;;;;;;7.90;7.20;;;18.60;83.90;;;;;;5073077;28;20543;-72
2022/07/17 06:19:14;;;;;;;6.07;5.57;;;18.70;83.20;;;;;;5072674;28;20918;-71
2022/07/17 06:21:42;;;;;;;7.00;5.73;;;18.70;82.80;;;;;;5072818;28;20484;-72
2022/07/17 06:24:09;;;;;;;11.80;5.87;;;18.90;83.40;;;;;;5072733;28;20475;-71
2022/07/17 06:26:36;;;;;;;6.17;5.57;;;18.90;81.20;;;;;;5072765;28;20539;-71
2022/07/17 06:29:03;;;;;;;6.23;5.47;;;19.00;81.50;;;;;;5073174;28;20535;-72
2022/07/17 06:31:32;;;;;;;7.07;6.33;;;19.10;80.00;;;;;;5072634;28;20551;-72
2022/07/17 06:33:59;;;;;;;8.53;5.17;;;19.20;82.20;;;;;;5072686;28;20444;-72
2022/07/17 06:36:26;;;;;;;5.77;5.13;;;19.20;81.10;;;;;;5072611;28;20973;-72
2022/07/17 06:38:53;;;;;;;7.93;6.00;;;19.20;78.90;;;;;;5072781;28;20637;-72
2022/07/17 06:41:21;;;;;;;5.47;4.93;;;19.30;79.00;;;;;;5072598;28;20484;-73
2022/07/17 06:43:48;;;;;;;8.93;6.20;;;19.40;78.70;;;;;;5072604;28;20520;-73
2022/07/17 06:46:15;;;;;;;7.83;6.60;;;19.50;79.20;;;;;;5072753;28;20441;-74
2022/07/17 06:48:44;;;;;;;7.53;5.60;;;19.40;77.90;;;;;;5072681;28;20501;-72
2022/07/17 06:51:11;;;;;;;6.50;5.80;;;19.40;77.60;;;;;;5072507;28;20559;-73
2022/07/17 06:53:38;;;;;;;5.60;5.10;;;19.50;76.70;;;;;;5072616;28;20441;-71
2022/07/17 06:56:06;;;;;;;5.90;5.13;;;19.60;76.00;;;;;;5072481;28;20452;-72
2022/07/17 06:58:33;;;;;;;6.43;5.00;;;19.80;75.90;;;;;;5072725;28;20478;-72
2022/07/17 07:01:01;;;;;;;4.90;4.50;;;19.90;73.70;;;;;;5072959;28;20560;-71
2022/07/17 07:03:28;;;;;;;5.70;5.10;;;19.90;73.50;;;;;;5076069;28;20510;-71
2022/07/17 07:05:56;;;;;;;4.67;3.90;;;20.00;72.40;;;;;;5076317;28;20563;-71
2022/07/17 07:08:24;;;;;;;7.17;4.60;;;20.20;73.50;;;;;;5075985;28;20991;-72
2022/07/17 07:10:51;;;;;;;5.60;4.43;;;20.30;72.80;;;;;;5076207;28;20464;-72
2022/07/17 07:13:18;;;;;;;4.90;4.07;;;20.40;71.60;;;;;;5075929;28;20502;-72
2022/07/17 07:15:45;;;;;;;4.90;4.40;;;20.40;69.70;;;;;;5076076;28;20531;-72
2022/07/17 07:18:12;;;;;;;4.30;3.90;;;20.50;71.90;;;;;;5075819;28;20536;-71
2022/07/17 07:20:40;;;;;;;5.10;4.17;;;20.70;71.80;;;;;;5075944;28;20464;-71
2022/07/17 07:23:08;;;;;;;5.30;4.80;;;20.90;68.90;;;;;;5075704;28;20482;-70
2022/07/17 07:25:35;;;;;;;4.07;3.77;;;21.30;67.40;;;;;;5075844;28;20448;-71
2022/07/17 07:28:03;;;;;;;4.80;4.40;;;22.00;66.40;;;;;;5075684;28;20950;-71
2022/07/17 07:30:30;;;;;;;4.20;3.80;;;22.60;65.90;;;;;;5075632;28;20464;-71
2022/07/17 07:32:57;;;;;;;5.43;3.97;;;23.30;64.60;;;;;;5075574;28;20531;-72
2022/07/17 07:35:24;;;;;;;4.20;3.73;;;23.80;62.90;;;;;;5075510;28;20460;-73
2022/07/17 07:37:52;;;;;;;4.43;4.03;;;24.50;60.40;;;;;;5075481;28;20544;-72
2022/07/17 07:40:20;;;;;;;5.70;3.90;;;24.80;59.60;;;;;;5075325;28;20902;-72
2022/07/17 07:42:48;;;;;;;4.20;3.80;;;25.10;59.40;;;;;;5075232;28;21079;-72
2022/07/17 07:45:15;;;;;;;4.63;3.50;;;25.60;58.80;;;;;;5075385;28;20536;-72
2022/07/17 07:47:44;;;;;;;5.23;4.73;;;25.90;57.50;;;;;;5075711;28;20505;-72
2022/07/17 07:50:12;;;;;;;3.50;3.20;;;25.90;57.30;;;;;;5075589;28;20834;-71
2022/07/17 07:52:40;;;;;;;4.20;3.80;;;26.40;57.00;;;;;;5075160;28;20514;-72
2022/07/17 07:55:09;;;;;;;4.70;4.13;;;26.50;56.90;;;;;;5075304;28;20532;-72
2022/07/17 07:57:37;;;;;;;3.93;3.40;;;26.90;56.50;;;;;;5075109;28;20927;-72
2022/07/17 08:00:05;;;;;;;3.80;3.50;;;26.70;55.80;;;;;;5075289;28;20476;-71
2022/07/17 08:02:33;;;;;;;3.37;3.17;;;27.00;55.70;;;;;;5075045;28;20986;-72
2022/07/17 08:05:00;;;;;;;3.83;3.43;;;27.80;55.70;;;;;;5074946;28;20563;-71
2022/07/17 08:07:28;;;;;;;4.20;3.80;;;27.90;54.60;;;;;;5074901;28;20979;-72
2022/07/17 08:09:55;;;;;;;3.03;2.73;;;28.20;55.10;;;;;;5074909;28;20468;-71
2022/07/17 08:12:23;;;;;;;3.43;3.23;;;28.00;54.80;;;;;;5075015;28;20445;-71
2022/07/17 08:14:52;;;;;;;3.83;3.57;;;28.70;54.30;;;;;;5074511;28;20542;-71
2022/07/17 08:17:20;;;;;;;3.60;3.30;;;29.10;53.40;;;;;;5074860;28;20536;-71
2022/07/17 08:19:47;;;;;;;3.17;2.90;;;29.00;51.70;;;;;;5074740;28;20468;-70
2022/07/17 08:22:14;;;;;;;4.13;3.73;;;29.00;52.60;;;;;;5074775;28;20811;-70
2022/07/17 08:24:41;;;;;;;3.63;3.33;;;29.40;52.40;;;;;;5074629;28;20879;-70
2022/07/17 08:27:09;;;;;;;4.00;3.10;;;29.10;51.20;;;;;;5074687;28;20854;-70
2022/07/17 08:29:36;;;;;;;3.60;3.30;;;29.50;52.20;;;;;;5074397;28;20583;-70
2022/07/17 08:32:05;;;;;;;3.20;2.97;;;29.50;51.70;;;;;;5074710;28;20624;-70
2022/07/17 08:34:33;;;;;;;3.60;3.30;;;29.80;50.80;;;;;;5074396;28;20939;-71
2022/07/17 08:37:00;;;;;;;3.00;2.80;;;30.30;50.10;;;;;;5074793;28;20555;-71
2022/07/17 08:39:27;;;;;;;3.00;2.73;;;29.90;50.40;;;;;;5074523;28;20531;-72
2022/07/17 08:41:54;;;;;;;3.00;2.80;;;29.40;50.90;;;;;;5074200;28;20555;-71
2022/07/17 08:44:21;;;;;;;3.87;3.57;;;30.10;49.80;;;;;;5074039;28;20492;-71
2022/07/17 08:46:49;;;;;;;2.90;2.70;;;28.70;49.70;;;;;;5074449;28;20475;-71
2022/07/17 08:49:22;;;;;;;3.37;3.07;;;29.20;50.30;;;;;;5074380;28;20502;-72
2022/07/17 08:51:50;;;;;;;3.90;3.30;;;29.80;50.80;;;;;;5074355;28;20515;-71
2022/07/17 08:54:17;;;;;;;3.30;3.00;;;30.00;49.90;;;;;;5074292;28;20527;-71
2022/07/17 08:56:44;;;;;;;3.47;3.17;;;30.10;49.70;;;;;;5073998;28;20456;-72
2022/07/17 08:59:11;;;;;;;3.90;3.20;;;30.60;48.90;;;;;;5073990;28;20887;-72
2022/07/17 09:01:39;;;;;;;3.17;2.90;;;30.40;53.40;;;;;;5073719;28;20967;-71
2022/07/17 09:04:07;;;;;;;3.33;3.00;;;30.60;48.10;;;;;;5073662;28;21069;-70
2022/07/17 09:06:36;;;;;;;2.80;2.60;;;30.00;48.50;;;;;;5073919;28;20559;-70
2022/07/17 09:09:06;;;;;;;4.50;3.00;;;30.70;48.10;;;;;;5073645;28;20531;-71
2022/07/17 09:11:44;;;;;;;3.17;2.87;;;30.60;48.70;;;;;;5073533;28;20507;-72
2022/07/17 09:14:12;;;;;;;4.70;2.97;;;31.00;50.40;;;;;;5073567;28;20447;-71
2022/07/17 09:16:51;;;;;;;3.23;3.03;;;30.90;48.40;;;;;;5073835;28;20455;-71
2022/07/17 09:19:30;;;;;;;3.00;2.70;;;30.70;48.60;;;;;;5073511;28;20479;-70
2022/07/17 09:22:13;;;;;;;3.40;3.10;;;31.10;47.10;;;;;;5073430;28;20494;-70
2022/07/17 09:24:43;;;;;;;2.70;2.50;;;31.60;47.80;;;;;;5073703;28;20464;-70
2022/07/17 09:27:11;;;;;;;4.30;2.80;;;31.40;46.40;;;;;;5073664;28;20485;-70
2022/07/17 09:29:52;;;;;;;3.43;3.13;;;31.30;46.40;;;;;;5073377;28;20487;-70
2022/07/17 09:32:20;;;;;;;3.00;2.80;;;30.30;47.60;;;;;;5073485;28;20424;-71
2022/07/17 09:34:47;;;;;;;2.50;2.30;;;30.80;47.30;;;;;;5073567;28;20439;-69
2022/07/17 09:37:17;;;;;;;2.87;2.57;;;31.60;46.70;;;;;;5073732;28;20554;-70
2022/07/17 09:39:44;;;;;;;2.27;1.90;;;32.00;45.50;;;;;;5073222;28;20460;-70
2022/07/17 09:42:23;;;;;;;3.00;2.80;;;32.40;45.10;;;;;;5073097;28;20583;-71
2022/07/17 09:44:57;;;;;;;7.10;2.83;;;32.50;45.80;;;;;;5073314;28;20464;-71
2022/07/17 09:47:25;;;;;;;2.57;2.30;;;31.30;45.70;;;;;;5073334;28;20439;-71
2022/07/17 09:49:54;;;;;;;3.13;2.13;;;31.30;46.30;;;;;;5073282;28;20468;-70
2022/07/17 09:52:24;;;;;;;2.80;2.50;;;31.20;43.50;;;;;;5073600;28;20444;-71
2022/07/17 09:54:54;;;;;;;4.57;2.80;;;31.80;44.80;;;;;;5073514;28;20445;-70
2022/07/17 09:57:25;;;;;;;2.50;2.30;;;31.40;43.80;;;;;;5073239;28;20820;-71
2022/07/17 09:59:55;;;;;;;3.40;1.97;;;31.50;43.50;;;;;;5073374;28;20468;-70
2022/07/17 10:02:24;;;;;;;2.50;2.30;;;32.10;43.50;;;;;;5073365;28;20440;-71
2022/07/17 10:04:52;;;;;;;2.70;2.00;;;32.20;42.30;;;;;;5073113;28;20480;-69
2022/07/17 10:07:20;;;;;;;2.90;2.60;;;32.80;43.90;;;;;;5073005;28;20450;-71
2022/07/17 10:09:49;;;;;;;5.73;2.70;;;33.10;43.40;;;;;;5073275;28;20456;-71
2022/07/17 10:12:17;;;;;;;2.80;2.60;;;33.30;43.80;;;;;;5073150;28;20749;-70
2022/07/17 10:14:48;;;;;;;2.67;2.47;;;33.80;43.00;;;;;;5072752;28;20483;-70
2022/07/17 10:17:20;;;;;;;2.67;2.40;;;32.80;43.00;;;;;;5073328;28;20460;-70
2022/07/17 10:19:50;;;;;;;2.37;2.20;;;32.70;43.40;;;;;;5072989;28;20558;-69
2022/07/17 10:22:17;;;;;;;2.83;2.60;;;33.30;43.00;;;;;;5072983;28;20448;-69
2022/07/17 10:24:52;;;;;;;2.90;2.43;;;33.40;42.70;;;;;;5072761;28;20483;-70
2022/07/17 10:27:21;;;;;;;2.30;2.10;;;33.00;43.70;;;;;;5072900;28;20529;-70
2022/07/17 10:29:59;;;;;;;2.73;2.53;;;33.40;42.50;;;;;;5072953;28;20470;-69
2022/07/17 10:32:27;;;;;;;3.90;2.60;;;;;;;;;;5072948;28;20472;-70
2022/07/17 10:34:55;;;;;;;4.30;2.60;;;;;;;;;;5072581;28;20505;-70
2022/07/17 10:37:25;;;;;;;4.93;2.87;;;33.20;41.60;;;;;;5075751;28;20428;-71
2022/07/17 10:40:12;;;;;;;3.03;2.83;;;33.30;41.40;;;;;;5076640;28;20544;-70
2022/07/17 10:42:56;;;;;;;4.23;2.60;;;32.10;41.40;;;;;;5076465;28;21015;-70
2022/07/17 10:45:26;;;;;;;2.90;2.70;;;32.80;41.30;;;;;;5076529;28;20925;-71
2022/07/17 10:47:59;;;;;;;2.50;2.30;;;32.20;41.10;;;;;;5076747;28;20765;-70
2022/07/17 10:50:28;;;;;;;2.80;2.60;;;32.40;41.70;;;;;;5076933;28;20503;-71
2022/07/17 10:53:07;;;;;;;3.37;2.30;;;33.20;42.30;;;;;;5076397;28;20535;-70
2022/07/17 10:55:39;;;;;;;2.70;2.50;;;33.90;41.40;;;;;;5076623;28;20432;-70
2022/07/17 10:58:18;;;;;;;2.23;2.00;;;34.10;41.00;;;;;;5076310;28;20486;-70
2022/07/17 11:01:00;;;;;;;2.67;2.47;;;33.90;41.10;;;;;;5076455;28;20467;-70
2022/07/17 11:03:27;;;;;;;2.70;2.50;;;34.10;41.40;;;;;;5076186;28;20555;-70
2022/07/17 11:05:55;;;;;;;2.80;2.60;;;33.70;40.80;;;;;;5076270;28;20452;-70
2022/07/17 11:08:22;;;;;;;2.63;2.43;;;33.60;41.10;;;;;;5076417;28;20454;-70
2022/07/17 11:10:53;;;;;;;2.80;2.60;;;33.60;41.50;;;;;;5076277;28;20892;-71
2022/07/17 11:13:20;;;;;;;2.80;2.57;;;33.00;40.50;;;;;;5076400;28;20439;-71
2022/07/17 11:15:49;;;;;;;2.80;2.60;;;33.00;42.00;;;;;;5076010;28;20554;-70
2022/07/17 11:18:19;;;;;;;4.17;2.73;;;33.60;41.30;;;;;;5075963;28;20452;-69
2022/07/17 11:20:51;;;;;;;2.87;2.23;;;33.80;40.90;;;;;;5075755;28;20463;-70
2022/07/17 11:23:18;;;;;;;3.23;2.70;;;33.30;40.60;;;;;;5075820;28;20443;-69
2022/07/17 11:26:00;;;;;;;3.73;2.60;;;33.20;41.00;;;;;;5075893;28;20481;-70
2022/07/17 11:28:45;;;;;;;2.50;2.30;;;33.30;41.10;;;;;;5075862;28;20531;-70
2022/07/17 11:31:20;;;;;;;2.93;2.63;;;32.90;41.00;;;;;;5075619;28;20459;-70
2022/07/17 11:33:53;;;;;;;2.50;2.30;;;33.00;41.50;;;;;;5075972;28;20451;-69
2022/07/17 11:36:28;;;;;;;3.30;2.70;;;32.90;40.70;;;;;;5075956;28;20452;-70
2022/07/17 11:39:00;;;;;;;2.50;2.30;;;33.40;41.10;;;;;;5076075;28;20446;-70
2022/07/17 11:41:37;;;;;;;2.83;2.47;;;33.90;41.10;;;;;;5075327;28;20475;-71
2022/07/17 11:44:07;;;;;;;2.40;1.97;;;34.00;39.50;;;;;;5075315;28;20468;-70
2022/07/17 11:46:35;;;;;;;2.20;2.00;;;33.90;39.00;;;;;;5075518;28;20990;-70
2022/07/17 11:49:03;;;;;;;3.30;2.40;;;33.80;38.40;;;;;;5074571;28;20473;-70
2022/07/17 11:51:41;;;;;;;2.33;2.13;;;34.30;39.50;;;;;;5075407;28;20891;-70
2022/07/17 11:54:09;;;;;;;2.90;2.60;;;34.80;38.30;;;;;;5075627;28;20523;-71
2022/07/17 11:56:39;;;;;;;2.70;2.50;;;34.10;37.20;;;;;;5075066;28;21029;-70
2022/07/17 11:59:07;;;;;;;2.97;2.30;;;34.10;38.40;;;;;;5075544;28;20448;-70
2022/07/17 12:01:40;;;;;;;2.80;2.27;;;34.40;38.00;;;;;;5075042;28;20962;-69
2022/07/17 12:04:09;;;;;;;2.43;2.23;;;34.10;38.30;;;;;;5075162;28;20758;-69
2022/07/17 12:06:37;;;;;;;2.83;2.63;;;34.30;38.50;;;;;;5075404;28;20512;-69
2022/07/17 12:09:04;;;;;;;2.77;2.57;;;34.90;40.40;;;;;;5075106;28;20450;-69
2022/07/17 12:11:32;;;;;;;2.47;2.27;;;34.70;39.20;;;;;;5075121;28;20499;-70
2022/07/17 12:14:06;;;;;;;3.40;2.33;;;34.80;38.80;;;;;;5075138;28;20472;-70
2022/07/17 12:16:36;;;;;;;2.40;2.20;;;34.70;38.60;;;;;;5075127;28;20431;-69
2022/07/17 12:19:09;;;;;;;2.70;2.50;;;34.10;38.60;;;;;;5075044;28;20980;-69
2022/07/17 12:21:50;;;;;;;2.40;2.13;;;33.80;38.70;;;;;;5074758;28;20468;-69
2022/07/17 12:24:22;;;;;;;2.80;2.60;;;33.90;39.40;;;;;;5074789;28;20467;-70
2022/07/17 12:26:49;;;;;;;4.20;2.60;;;34.00;38.70;;;;;;5074758;28;20939;-70
2022/07/17 12:29:18;;;;;;;2.20;2.00;;;34.20;38.70;;;;;;5074840;28;20451;-70
2022/07/17 12:31:46;;;;;;;2.47;2.27;;;33.70;38.00;;;;;;5074435;28;20454;-70
2022/07/17 12:34:13;;;;;;;2.97;2.43;;;33.90;37.00;;;;;;5074291;28;20948;-70
2022/07/17 12:36:40;;;;;;;3.40;2.70;;;33.50;38.30;;;;;;5074365;28;20460;-70
2022/07/17 12:39:08;;;;;;;3.53;2.60;;;33.60;38.40;;;;;;5074603;28;20525;-71
2022/07/17 12:41:35;;;;;;;2.90;2.70;;;33.50;38.30;;;;;;5074127;28;20482;-70
2022/07/17 12:44:02;;;;;;;4.93;3.00;;;32.50;38.40;;;;;;5074500;28;20581;-70
2022/07/17 12:46:31;;;;;;;4.33;2.40;;;32.40;39.10;;;;;;5074378;28;20531;-71
2022/07/17 12:48:58;;;;;;;2.70;2.50;;;32.70;38.80;;;;;;5074438;28;20448;-71
2022/07/17 12:51:25;;;;;;;2.93;2.73;;;32.50;38.40;;;;;;5074183;28;20971;-72
2022/07/17 12:53:53;;;;;;;2.07;1.97;;;33.30;39.40;;;;;;5074336;28;20435;-71